sensor_id;sensor_type;location;lat;lon;timestamp;P1;durP1;ratioP1;P2;durP2;ratioP2
24617;SDS011;12762;51.730;5.356;2022-08-16T00:01:20;6.90;;;5.50;;
24617;SDS011;12762;51.730;5.356;2022-08-16T00:03:50;8.63;;;6.23;;
24617;SDS011;12762;51.730;5.356;2022-08-16T00:06:19;8.70;;;6.33;;
24617;SDS011;12762;51.730;5.356;2022-08-16T00:08:47;13.67;;;6.77;;
24617;SDS011;12762;51.730;5.356;2022-08-16T00:11:14;10.87;;;7.57;;
24617;SDS011;12762;51.730;5.356;2022-08-16T00:13:45;11.33;;;6.93;;
24617;SDS011;12762;51.730;5.356;2022-08-16T00:16:21;9.10;;;6.10;;
24617;SDS011;12762;51.730;5.356;2022-08-16T00:19:10;10.60;;;7.23;;
24617;SDS011;12762;51.730;5.356;2022-08-16T00:21:39;11.40;;;8.10;;
24617;SDS011;12762;51.730;5.356;2022-08-16T00:24:06;12.57;;;7.97;;
24617;SDS011;12762;51.730;5.356;2022-08-16T00:26:38;13.60;;;9.00;;
24617;SDS011;12762;51.730;5.356;2022-08-16T00:29:14;10.77;;;8.60;;
24617;SDS011;12762;51.730;5.356;2022-08-16T00:31:44;11.43;;;7.77;;
24617;SDS011;12762;51.730;5.356;2022-08-16T00:34:27;12.70;;;8.57;;
24617;SDS011;12762;51.730;5.356;2022-08-16T00:37:15;9.23;;;7.50;;
24617;SDS011;12762;51.730;5.356;2022-08-16T00:39:45;14.53;;;8.80;;
24617;SDS011;12762;51.730;5.356;2022-08-16T00:42:28;13.10;;;8.60;;
24617;SDS011;12762;51.730;5.356;2022-08-16T00:45:04;12.70;;;8.90;;
24617;SDS011;12762;51.730;5.356;2022-08-16T00:47:39;8.60;;;7.00;;
24617;SDS011;12762;51.730;5.356;2022-08-16T00:50:15;13.90;;;8.53;;
24617;SDS011;12762;51.730;5.356;2022-08-16T00:52:46;13.47;;;8.23;;
24617;SDS011;12762;51.730;5.356;2022-08-16T00:55:18;11.37;;;9.13;;
24617;SDS011;12762;51.730;5.356;2022-08-16T00:57:47;10.43;;;8.43;;
24617;SDS011;12762;51.730;5.356;2022-08-16T01:00:26;11.33;;;8.10;;
24617;SDS011;12762;51.730;5.356;2022-08-16T01:02:56;10.53;;;7.83;;
24617;SDS011;12762;51.730;5.356;2022-08-16T01:05:28;12.97;;;8.33;;
24617;SDS011;12762;51.730;5.356;2022-08-16T01:07:58;10.83;;;8.43;;
24617;SDS011;12762;51.730;5.356;2022-08-16T01:10:26;13.90;;;9.07;;
24617;SDS011;12762;51.730;5.356;2022-08-16T01:13:04;14.27;;;9.80;;
24617;SDS011;12762;51.730;5.356;2022-08-16T01:15:45;10.87;;;8.30;;
24617;SDS011;12762;51.730;5.356;2022-08-16T01:18:19;12.70;;;9.17;;
24617;SDS011;12762;51.730;5.356;2022-08-16T01:26:27;13.97;;;8.83;;
24617;SDS011;12762;51.730;5.356;2022-08-16T01:29:03;12.73;;;9.03;;
24617;SDS011;12762;51.730;5.356;2022-08-16T01:31:36;13.17;;;9.97;;
24617;SDS011;12762;51.730;5.356;2022-08-16T01:34:08;13.40;;;10.00;;
24617;SDS011;12762;51.730;5.356;2022-08-16T01:36:58;14.17;;;10.07;;
24617;SDS011;12762;51.730;5.356;2022-08-16T01:39:34;11.70;;;9.47;;
24617;SDS011;12762;51.730;5.356;2022-08-16T01:42:02;14.93;;;9.93;;
24617;SDS011;12762;51.730;5.356;2022-08-16T01:44:38;15.80;;;10.83;;
24617;SDS011;12762;51.730;5.356;2022-08-16T01:47:06;12.20;;;9.07;;
24617;SDS011;12762;51.730;5.356;2022-08-16T01:49:36;13.57;;;9.90;;
24617;SDS011;12762;51.730;5.356;2022-08-16T01:52:26;18.40;;;11.03;;
24617;SDS011;12762;51.730;5.356;2022-08-16T01:54:55;15.07;;;10.50;;
24617;SDS011;12762;51.730;5.356;2022-08-16T01:57:24;14.50;;;9.93;;
24617;SDS011;12762;51.730;5.356;2022-08-16T01:59:52;12.67;;;9.80;;
24617;SDS011;12762;51.730;5.356;2022-08-16T02:02:21;14.03;;;9.87;;
24617;SDS011;12762;51.730;5.356;2022-08-16T02:04:54;17.63;;;10.93;;
24617;SDS011;12762;51.730;5.356;2022-08-16T02:07:23;12.37;;;9.60;;
24617;SDS011;12762;51.730;5.356;2022-08-16T02:09:51;14.77;;;9.67;;
24617;SDS011;12762;51.730;5.356;2022-08-16T02:12:23;16.77;;;9.93;;
24617;SDS011;12762;51.730;5.356;2022-08-16T02:15:11;15.97;;;10.30;;
24617;SDS011;12762;51.730;5.356;2022-08-16T02:17:41;15.00;;;10.80;;
24617;SDS011;12762;51.730;5.356;2022-08-16T02:20:10;13.50;;;9.77;;
24617;SDS011;12762;51.730;5.356;2022-08-16T02:22:37;13.70;;;9.67;;
24617;SDS011;12762;51.730;5.356;2022-08-16T02:25:09;13.53;;;10.23;;
24617;SDS011;12762;51.730;5.356;2022-08-16T02:27:40;17.00;;;10.80;;
24617;SDS011;12762;51.730;5.356;2022-08-16T02:30:11;15.37;;;10.20;;
24617;SDS011;12762;51.730;5.356;2022-08-16T02:33:03;15.73;;;11.57;;
24617;SDS011;12762;51.730;5.356;2022-08-16T02:35:34;15.27;;;10.93;;
24617;SDS011;12762;51.730;5.356;2022-08-16T02:38:20;14.83;;;10.40;;
24617;SDS011;12762;51.730;5.356;2022-08-16T02:40:47;14.87;;;10.87;;
24617;SDS011;12762;51.730;5.356;2022-08-16T02:43:14;15.57;;;10.87;;
24617;SDS011;12762;51.730;5.356;2022-08-16T02:45:41;12.20;;;8.63;;
24617;SDS011;12762;51.730;5.356;2022-08-16T02:48:09;15.43;;;10.03;;
24617;SDS011;12762;51.730;5.356;2022-08-16T02:50:56;15.27;;;10.30;;
24617;SDS011;12762;51.730;5.356;2022-08-16T02:53:36;15.13;;;10.93;;
24617;SDS011;12762;51.730;5.356;2022-08-16T02:56:10;16.07;;;11.30;;
24617;SDS011;12762;51.730;5.356;2022-08-16T02:58:42;14.57;;;11.20;;
24617;SDS011;12762;51.730;5.356;2022-08-16T03:01:11;15.53;;;11.80;;
24617;SDS011;12762;51.730;5.356;2022-08-16T03:03:58;17.50;;;11.63;;
24617;SDS011;12762;51.730;5.356;2022-08-16T03:06:47;19.23;;;12.60;;
24617;SDS011;12762;51.730;5.356;2022-08-16T03:09:21;15.80;;;11.70;;
24617;SDS011;12762;51.730;5.356;2022-08-16T03:11:48;17.77;;;11.60;;
24617;SDS011;12762;51.730;5.356;2022-08-16T03:14:16;15.17;;;12.17;;
24617;SDS011;12762;51.730;5.356;2022-08-16T03:16:50;14.93;;;11.53;;
24617;SDS011;12762;51.730;5.356;2022-08-16T03:19:31;15.10;;;11.90;;
24617;SDS011;12762;51.730;5.356;2022-08-16T03:22:14;16.03;;;11.77;;
24617;SDS011;12762;51.730;5.356;2022-08-16T03:24:55;18.50;;;12.83;;
24617;SDS011;12762;51.730;5.356;2022-08-16T03:27:24;15.43;;;11.53;;
24617;SDS011;12762;51.730;5.356;2022-08-16T03:29:58;15.87;;;12.30;;
24617;SDS011;12762;51.730;5.356;2022-08-16T03:32:46;15.60;;;12.63;;
24617;SDS011;12762;51.730;5.356;2022-08-16T03:35:18;18.80;;;13.07;;
24617;SDS011;12762;51.730;5.356;2022-08-16T03:37:48;15.97;;;12.20;;
24617;SDS011;12762;51.730;5.356;2022-08-16T03:40:29;16.40;;;12.03;;
24617;SDS011;12762;51.730;5.356;2022-08-16T03:42:59;16.23;;;11.67;;
24617;SDS011;12762;51.730;5.356;2022-08-16T03:45:46;24.27;;;13.73;;
24617;SDS011;12762;51.730;5.356;2022-08-16T03:48:17;18.60;;;13.03;;
24617;SDS011;12762;51.730;5.356;2022-08-16T03:51:03;18.33;;;12.57;;
24617;SDS011;12762;51.730;5.356;2022-08-16T03:53:33;17.10;;;12.43;;
24617;SDS011;12762;51.730;5.356;2022-08-16T03:56:03;18.67;;;12.77;;
24617;SDS011;12762;51.730;5.356;2022-08-16T03:58:44;19.17;;;12.67;;
24617;SDS011;12762;51.730;5.356;2022-08-16T04:01:13;16.07;;;11.87;;
24617;SDS011;12762;51.730;5.356;2022-08-16T04:03:41;16.93;;;12.67;;
24617;SDS011;12762;51.730;5.356;2022-08-16T04:06:09;16.80;;;12.57;;
24617;SDS011;12762;51.730;5.356;2022-08-16T04:08:36;19.00;;;12.77;;
24617;SDS011;12762;51.730;5.356;2022-08-16T04:11:04;18.50;;;13.27;;
24617;SDS011;12762;51.730;5.356;2022-08-16T04:13:32;18.40;;;12.93;;
24617;SDS011;12762;51.730;5.356;2022-08-16T04:16:20;17.23;;;13.07;;
24617;SDS011;12762;51.730;5.356;2022-08-16T04:18:53;17.97;;;12.10;;
24617;SDS011;12762;51.730;5.356;2022-08-16T04:21:30;18.80;;;13.63;;
24617;SDS011;12762;51.730;5.356;2022-08-16T04:23:59;17.80;;;12.67;;
24617;SDS011;12762;51.730;5.356;2022-08-16T04:26:28;17.80;;;13.47;;
24617;SDS011;12762;51.730;5.356;2022-08-16T04:29:01;20.63;;;14.13;;
24617;SDS011;12762;51.730;5.356;2022-08-16T04:31:49;17.50;;;14.13;;
24617;SDS011;12762;51.730;5.356;2022-08-16T04:34:22;20.17;;;14.83;;
24617;SDS011;12762;51.730;5.356;2022-08-16T04:36:54;19.73;;;15.10;;
24617;SDS011;12762;51.730;5.356;2022-08-16T04:39:27;23.30;;;15.60;;
24617;SDS011;12762;51.730;5.356;2022-08-16T04:42:15;22.03;;;14.40;;
24617;SDS011;12762;51.730;5.356;2022-08-16T04:44:43;20.80;;;15.37;;
24617;SDS011;12762;51.730;5.356;2022-08-16T04:47:21;20.23;;;14.50;;
24617;SDS011;12762;51.730;5.356;2022-08-16T04:49:58;18.77;;;13.97;;
24617;SDS011;12762;51.730;5.356;2022-08-16T04:52:26;19.23;;;14.80;;
24617;SDS011;12762;51.730;5.356;2022-08-16T04:55:05;19.97;;;15.40;;
24617;SDS011;12762;51.730;5.356;2022-08-16T04:57:37;20.97;;;15.27;;
24617;SDS011;12762;51.730;5.356;2022-08-16T05:00:08;23.27;;;15.17;;
24617;SDS011;12762;51.730;5.356;2022-08-16T05:02:58;21.97;;;16.57;;
24617;SDS011;12762;51.730;5.356;2022-08-16T05:05:34;20.23;;;15.87;;
24617;SDS011;12762;51.730;5.356;2022-08-16T05:08:21;21.53;;;15.80;;
24617;SDS011;12762;51.730;5.356;2022-08-16T05:10:56;24.50;;;16.60;;
24617;SDS011;12762;51.730;5.356;2022-08-16T05:13:29;24.47;;;16.37;;
24617;SDS011;12762;51.730;5.356;2022-08-16T05:16:12;22.70;;;16.67;;
24617;SDS011;12762;51.730;5.356;2022-08-16T05:18:49;23.80;;;16.90;;
24617;SDS011;12762;51.730;5.356;2022-08-16T05:21:17;22.30;;;15.70;;
24617;SDS011;12762;51.730;5.356;2022-08-16T05:23:47;22.40;;;17.50;;
24617;SDS011;12762;51.730;5.356;2022-08-16T05:26:21;22.30;;;16.87;;
24617;SDS011;12762;51.730;5.356;2022-08-16T05:28:53;21.67;;;16.77;;
24617;SDS011;12762;51.730;5.356;2022-08-16T05:31:22;25.33;;;18.03;;
24617;SDS011;12762;51.730;5.356;2022-08-16T05:33:55;23.87;;;17.40;;
24617;SDS011;12762;51.730;5.356;2022-08-16T05:36:28;23.53;;;17.17;;
24617;SDS011;12762;51.730;5.356;2022-08-16T05:39:00;23.60;;;17.47;;
24617;SDS011;12762;51.730;5.356;2022-08-16T05:41:27;24.77;;;17.87;;
24617;SDS011;12762;51.730;5.356;2022-08-16T05:43:55;24.07;;;17.43;;
24617;SDS011;12762;51.730;5.356;2022-08-16T05:46:30;23.07;;;16.93;;
24617;SDS011;12762;51.730;5.356;2022-08-16T05:49:00;22.10;;;17.90;;
24617;SDS011;12762;51.730;5.356;2022-08-16T05:51:35;26.03;;;18.57;;
24617;SDS011;12762;51.730;5.356;2022-08-16T05:54:07;28.53;;;18.57;;
24617;SDS011;12762;51.730;5.356;2022-08-16T05:56:37;23.80;;;17.57;;
24617;SDS011;12762;51.730;5.356;2022-08-16T05:59:05;22.97;;;18.20;;
24617;SDS011;12762;51.730;5.356;2022-08-16T06:01:33;23.40;;;18.20;;
24617;SDS011;12762;51.730;5.356;2022-08-16T06:04:04;27.83;;;18.03;;
24617;SDS011;12762;51.730;5.356;2022-08-16T06:06:39;26.13;;;18.60;;
24617;SDS011;12762;51.730;5.356;2022-08-16T06:09:21;23.77;;;18.13;;
24617;SDS011;12762;51.730;5.356;2022-08-16T06:11:48;27.10;;;18.73;;
24617;SDS011;12762;51.730;5.356;2022-08-16T06:14:16;22.07;;;18.07;;
24617;SDS011;12762;51.730;5.356;2022-08-16T06:16:44;30.20;;;20.63;;
24617;SDS011;12762;51.730;5.356;2022-08-16T06:19:16;26.17;;;18.83;;
24617;SDS011;12762;51.730;5.356;2022-08-16T06:21:43;25.70;;;19.30;;
24617;SDS011;12762;51.730;5.356;2022-08-16T06:24:20;23.57;;;18.60;;
24617;SDS011;12762;51.730;5.356;2022-08-16T06:27:07;25.10;;;18.37;;
24617;SDS011;12762;51.730;5.356;2022-08-16T06:29:34;26.47;;;18.90;;
24617;SDS011;12762;51.730;5.356;2022-08-16T06:32:03;26.13;;;18.70;;
24617;SDS011;12762;51.730;5.356;2022-08-16T06:34:32;27.00;;;18.23;;
24617;SDS011;12762;51.730;5.356;2022-08-16T06:37:20;26.97;;;19.13;;
24617;SDS011;12762;51.730;5.356;2022-08-16T06:40:04;26.13;;;19.57;;
24617;SDS011;12762;51.730;5.356;2022-08-16T06:42:41;25.93;;;19.33;;
24617;SDS011;12762;51.730;5.356;2022-08-16T06:45:13;25.70;;;20.17;;
24617;SDS011;12762;51.730;5.356;2022-08-16T06:47:40;23.17;;;19.40;;
24617;SDS011;12762;51.730;5.356;2022-08-16T06:50:21;28.30;;;19.87;;
24617;SDS011;12762;51.730;5.356;2022-08-16T06:52:55;29.37;;;19.63;;
24617;SDS011;12762;51.730;5.356;2022-08-16T06:55:32;25.33;;;19.50;;
24617;SDS011;12762;51.730;5.356;2022-08-16T06:58:03;29.03;;;21.37;;
24617;SDS011;12762;51.730;5.356;2022-08-16T07:00:46;30.27;;;20.80;;
24617;SDS011;12762;51.730;5.356;2022-08-16T07:03:14;31.27;;;21.93;;
24617;SDS011;12762;51.730;5.356;2022-08-16T07:05:53;27.40;;;21.13;;
24617;SDS011;12762;51.730;5.356;2022-08-16T07:08:24;29.80;;;22.47;;
24617;SDS011;12762;51.730;5.356;2022-08-16T07:10:53;29.17;;;21.93;;
24617;SDS011;12762;51.730;5.356;2022-08-16T07:13:21;35.03;;;21.73;;
24617;SDS011;12762;51.730;5.356;2022-08-16T07:16:08;32.30;;;22.27;;
24617;SDS011;12762;51.730;5.356;2022-08-16T07:18:41;29.20;;;22.43;;
24617;SDS011;12762;51.730;5.356;2022-08-16T07:21:27;31.23;;;23.57;;
24617;SDS011;12762;51.730;5.356;2022-08-16T07:24:14;29.20;;;21.67;;
24617;SDS011;12762;51.730;5.356;2022-08-16T07:26:56;28.30;;;20.73;;
24617;SDS011;12762;51.730;5.356;2022-08-16T07:29:24;28.97;;;22.60;;
24617;SDS011;12762;51.730;5.356;2022-08-16T07:31:56;26.50;;;20.87;;
24617;SDS011;12762;51.730;5.356;2022-08-16T07:34:23;30.03;;;21.10;;
24617;SDS011;12762;51.730;5.356;2022-08-16T07:37:04;25.87;;;19.57;;
24617;SDS011;12762;51.730;5.356;2022-08-16T07:39:35;24.87;;;18.63;;
24617;SDS011;12762;51.730;5.356;2022-08-16T07:42:09;26.70;;;19.73;;
24617;SDS011;12762;51.730;5.356;2022-08-16T07:44:50;23.92;;;18.80;;
24617;SDS011;12762;51.730;5.356;2022-08-16T07:47:22;26.00;;;18.70;;
24617;SDS011;12762;51.730;5.356;2022-08-16T07:49:57;24.48;;;18.42;;
24617;SDS011;12762;51.730;5.356;2022-08-16T07:52:31;23.02;;;18.15;;
24617;SDS011;12762;51.730;5.356;2022-08-16T07:54:59;22.35;;;16.10;;
24617;SDS011;12762;51.730;5.356;2022-08-16T07:57:29;18.95;;;16.27;;
24617;SDS011;12762;51.730;5.356;2022-08-16T08:00:02;21.10;;;15.93;;
24617;SDS011;12762;51.730;5.356;2022-08-16T08:02:30;18.65;;;14.95;;
24617;SDS011;12762;51.730;5.356;2022-08-16T08:04:57;18.15;;;14.38;;
24617;SDS011;12762;51.730;5.356;2022-08-16T08:07:28;22.35;;;15.15;;
24617;SDS011;12762;51.730;5.356;2022-08-16T08:09:57;23.35;;;15.90;;
24617;SDS011;12762;51.730;5.356;2022-08-16T08:12:25;20.15;;;16.67;;
24617;SDS011;12762;51.730;5.356;2022-08-16T08:15:03;22.80;;;16.20;;
24617;SDS011;12762;51.730;5.356;2022-08-16T08:17:35;21.70;;;15.93;;
24617;SDS011;12762;51.730;5.356;2022-08-16T08:20:09;18.25;;;16.35;;
24617;SDS011;12762;51.730;5.356;2022-08-16T08:22:54;21.77;;;15.73;;
24617;SDS011;12762;51.730;5.356;2022-08-16T08:25:26;22.70;;;14.98;;
24617;SDS011;12762;51.730;5.356;2022-08-16T08:28:16;17.10;;;14.52;;
24617;SDS011;12762;51.730;5.356;2022-08-16T08:30:45;19.60;;;14.40;;
24617;SDS011;12762;51.730;5.356;2022-08-16T08:33:27;19.90;;;15.15;;
24617;SDS011;12762;51.730;5.356;2022-08-16T08:35:59;20.95;;;15.90;;
24617;SDS011;12762;51.730;5.356;2022-08-16T08:38:30;18.80;;;14.35;;
24617;SDS011;12762;51.730;5.356;2022-08-16T08:41:11;18.42;;;13.82;;
24617;SDS011;12762;51.730;5.356;2022-08-16T08:43:44;17.15;;;13.60;;
24617;SDS011;12762;51.730;5.356;2022-08-16T08:46:15;16.45;;;13.90;;
24617;SDS011;12762;51.730;5.356;2022-08-16T08:48:47;17.92;;;13.82;;
24617;SDS011;12762;51.730;5.356;2022-08-16T08:51:25;17.27;;;13.43;;
24617;SDS011;12762;51.730;5.356;2022-08-16T08:54:05;17.77;;;13.93;;
24617;SDS011;12762;51.730;5.356;2022-08-16T08:56:35;20.92;;;13.98;;
24617;SDS011;12762;51.730;5.356;2022-08-16T08:59:11;19.42;;;15.55;;
24617;SDS011;12762;51.730;5.356;2022-08-16T09:01:46;18.30;;;13.68;;
24617;SDS011;12762;51.730;5.356;2022-08-16T09:04:26;15.50;;;12.93;;
24617;SDS011;12762;51.730;5.356;2022-08-16T09:06:54;18.25;;;13.70;;
24617;SDS011;12762;51.730;5.356;2022-08-16T09:09:23;18.45;;;14.02;;
24617;SDS011;12762;51.730;5.356;2022-08-16T09:11:58;17.50;;;14.07;;
24617;SDS011;12762;51.730;5.356;2022-08-16T09:14:32;19.92;;;14.82;;
24617;SDS011;12762;51.730;5.356;2022-08-16T09:16:59;14.82;;;13.25;;
24617;SDS011;12762;51.730;5.356;2022-08-16T09:19:42;19.75;;;14.25;;
24617;SDS011;12762;51.730;5.356;2022-08-16T09:22:11;19.85;;;14.60;;
24617;SDS011;12762;51.730;5.356;2022-08-16T09:24:46;16.27;;;13.52;;
24617;SDS011;12762;51.730;5.356;2022-08-16T09:27:19;19.67;;;15.40;;
24617;SDS011;12762;51.730;5.356;2022-08-16T09:29:50;18.85;;;14.50;;
24617;SDS011;12762;51.730;5.356;2022-08-16T09:32:25;15.45;;;13.57;;
24617;SDS011;12762;51.730;5.356;2022-08-16T09:34:56;18.08;;;13.80;;
24617;SDS011;12762;51.730;5.356;2022-08-16T09:37:25;15.90;;;13.10;;
24617;SDS011;12762;51.730;5.356;2022-08-16T09:40:02;18.52;;;12.93;;
24617;SDS011;12762;51.730;5.356;2022-08-16T09:42:51;14.85;;;13.00;;
24617;SDS011;12762;51.730;5.356;2022-08-16T09:45:24;15.85;;;11.85;;
24617;SDS011;12762;51.730;5.356;2022-08-16T09:47:56;13.68;;;11.40;;
24617;SDS011;12762;51.730;5.356;2022-08-16T09:50:24;13.95;;;11.70;;
24617;SDS011;12762;51.730;5.356;2022-08-16T09:53:06;12.07;;;10.68;;
24617;SDS011;12762;51.730;5.356;2022-08-16T09:55:43;14.45;;;10.70;;
24617;SDS011;12762;51.730;5.356;2022-08-16T09:58:16;15.20;;;11.52;;
24617;SDS011;12762;51.730;5.356;2022-08-16T10:01:10;15.52;;;11.05;;
24617;SDS011;12762;51.730;5.356;2022-08-16T10:03:38;14.00;;;10.55;;
24617;SDS011;12762;51.730;5.356;2022-08-16T10:06:25;14.75;;;10.27;;
24617;SDS011;12762;51.730;5.356;2022-08-16T10:09:12;15.05;;;10.85;;
24617;SDS011;12762;51.730;5.356;2022-08-16T10:11:40;14.13;;;10.95;;
24617;SDS011;12762;51.730;5.356;2022-08-16T10:14:36;12.07;;;10.15;;
24617;SDS011;12762;51.730;5.356;2022-08-16T10:17:11;14.40;;;10.95;;
24617;SDS011;12762;51.730;5.356;2022-08-16T10:19:38;15.27;;;11.35;;
24617;SDS011;12762;51.730;5.356;2022-08-16T10:22:05;14.10;;;10.02;;
24617;SDS011;12762;51.730;5.356;2022-08-16T10:24:32;15.95;;;9.35;;
24617;SDS011;12762;51.730;5.356;2022-08-16T10:26:59;15.65;;;10.98;;
24617;SDS011;12762;51.730;5.356;2022-08-16T10:29:46;13.60;;;8.68;;
24617;SDS011;12762;51.730;5.356;2022-08-16T10:32:31;9.75;;;8.32;;
24617;SDS011;12762;51.730;5.356;2022-08-16T10:35:00;11.57;;;7.88;;
24617;SDS011;12762;51.730;5.356;2022-08-16T10:37:29;11.02;;;7.65;;
24617;SDS011;12762;51.730;5.356;2022-08-16T10:40:01;11.25;;;8.80;;
24617;SDS011;12762;51.730;5.356;2022-08-16T10:42:51;11.60;;;9.40;;
24617;SDS011;12762;51.730;5.356;2022-08-16T10:45:19;10.40;;;8.27;;
24617;SDS011;12762;51.730;5.356;2022-08-16T10:47:47;11.32;;;8.80;;
24617;SDS011;12762;51.730;5.356;2022-08-16T10:50:29;12.45;;;7.88;;
24617;SDS011;12762;51.730;5.356;2022-08-16T10:52:57;15.10;;;8.63;;
24617;SDS011;12762;51.730;5.356;2022-08-16T10:55:31;10.80;;;8.45;;
24617;SDS011;12762;51.730;5.356;2022-08-16T10:58:10;12.82;;;9.63;;
24617;SDS011;12762;51.730;5.356;2022-08-16T11:00:42;11.07;;;7.97;;
24617;SDS011;12762;51.730;5.356;2022-08-16T11:03:11;14.13;;;9.52;;
24617;SDS011;12762;51.730;5.356;2022-08-16T11:05:58;10.48;;;8.10;;
24617;SDS011;12762;51.730;5.356;2022-08-16T11:08:33;13.30;;;8.32;;
24617;SDS011;12762;51.730;5.356;2022-08-16T11:11:11;10.38;;;8.05;;
24617;SDS011;12762;51.730;5.356;2022-08-16T11:13:45;14.48;;;9.60;;
24617;SDS011;12762;51.730;5.356;2022-08-16T11:16:33;9.40;;;7.72;;
24617;SDS011;12762;51.730;5.356;2022-08-16T11:19:21;11.60;;;7.22;;
24617;SDS011;12762;51.730;5.356;2022-08-16T11:21:48;11.80;;;7.30;;
24617;SDS011;12762;51.730;5.356;2022-08-16T11:24:36;10.50;;;8.60;;
24617;SDS011;12762;51.730;5.356;2022-08-16T11:27:14;12.43;;;10.73;;
24617;SDS011;12762;51.730;5.356;2022-08-16T11:29:49;12.10;;;9.52;;
24617;SDS011;12762;51.730;5.356;2022-08-16T11:32:21;8.98;;;7.00;;
24617;SDS011;12762;51.730;5.356;2022-08-16T11:35:00;9.23;;;7.40;;
24617;SDS011;12762;51.730;5.356;2022-08-16T11:37:37;10.90;;;7.68;;
24617;SDS011;12762;51.730;5.356;2022-08-16T11:40:25;10.05;;;8.27;;
24617;SDS011;12762;51.730;5.356;2022-08-16T11:42:58;8.88;;;7.90;;
24617;SDS011;12762;51.730;5.356;2022-08-16T11:45:29;13.27;;;9.05;;
24617;SDS011;12762;51.730;5.356;2022-08-16T11:48:00;11.50;;;8.38;;
24617;SDS011;12762;51.730;5.356;2022-08-16T11:50:31;10.15;;;8.50;;
24617;SDS011;12762;51.730;5.356;2022-08-16T11:52:59;12.25;;;8.40;;
24617;SDS011;12762;51.730;5.356;2022-08-16T11:55:29;12.35;;;7.70;;
24617;SDS011;12762;51.730;5.356;2022-08-16T11:57:56;11.98;;;8.25;;
24617;SDS011;12762;51.730;5.356;2022-08-16T12:00:25;13.20;;;7.80;;
24617;SDS011;12762;51.730;5.356;2022-08-16T12:03:14;12.70;;;8.57;;
24617;SDS011;12762;51.730;5.356;2022-08-16T12:05:42;11.10;;;7.60;;
24617;SDS011;12762;51.730;5.356;2022-08-16T12:08:11;12.00;;;7.55;;
24617;SDS011;12762;51.730;5.356;2022-08-16T12:10:43;8.65;;;6.72;;
24617;SDS011;12762;51.730;5.356;2022-08-16T12:13:12;10.15;;;7.20;;
24617;SDS011;12762;51.730;5.356;2022-08-16T12:15:40;10.32;;;6.40;;
24617;SDS011;12762;51.730;5.356;2022-08-16T12:18:07;7.95;;;6.80;;
24617;SDS011;12762;51.730;5.356;2022-08-16T12:20:36;9.65;;;6.57;;
24617;SDS011;12762;51.730;5.356;2022-08-16T12:23:05;8.65;;;6.95;;
24617;SDS011;12762;51.730;5.356;2022-08-16T12:25:32;9.18;;;6.40;;
24617;SDS011;12762;51.730;5.356;2022-08-16T12:28:00;9.75;;;6.13;;
24617;SDS011;12762;51.730;5.356;2022-08-16T12:30:29;10.63;;;6.32;;
24617;SDS011;12762;51.730;5.356;2022-08-16T12:33:04;10.93;;;6.70;;
24617;SDS011;12762;51.730;5.356;2022-08-16T12:35:33;8.32;;;6.03;;
24617;SDS011;12762;51.730;5.356;2022-08-16T12:38:02;7.30;;;6.40;;
24617;SDS011;12762;51.730;5.356;2022-08-16T12:40:51;8.32;;;6.40;;
24617;SDS011;12762;51.730;5.356;2022-08-16T12:43:22;6.43;;;5.78;;
24617;SDS011;12762;51.730;5.356;2022-08-16T12:45:52;7.50;;;6.05;;
24617;SDS011;12762;51.730;5.356;2022-08-16T12:48:22;7.18;;;5.85;;
24617;SDS011;12762;51.730;5.356;2022-08-16T12:51:13;7.60;;;5.80;;
24617;SDS011;12762;51.730;5.356;2022-08-16T12:53:53;7.22;;;6.50;;
24617;SDS011;12762;51.730;5.356;2022-08-16T12:56:27;10.20;;;5.85;;
24617;SDS011;12762;51.730;5.356;2022-08-16T12:58:59;8.00;;;4.88;;
24617;SDS011;12762;51.730;5.356;2022-08-16T13:01:29;8.30;;;5.47;;
24617;SDS011;12762;51.730;5.356;2022-08-16T13:03:59;9.48;;;6.22;;
24617;SDS011;12762;51.730;5.356;2022-08-16T13:06:45;8.30;;;6.55;;
24617;SDS011;12762;51.730;5.356;2022-08-16T13:09:14;10.48;;;6.40;;
24617;SDS011;12762;51.730;5.356;2022-08-16T13:14:36;8.27;;;6.57;;
24617;SDS011;12762;51.730;5.356;2022-08-16T13:17:08;8.70;;;6.78;;
24617;SDS011;12762;51.730;5.356;2022-08-16T13:19:44;10.77;;;6.15;;
24617;SDS011;12762;51.730;5.356;2022-08-16T13:22:32;11.43;;;7.55;;
24617;SDS011;12762;51.730;5.356;2022-08-16T13:25:06;9.25;;;7.70;;
24617;SDS011;12762;51.730;5.356;2022-08-16T13:27:34;8.38;;;6.78;;
24617;SDS011;12762;51.730;5.356;2022-08-16T13:30:22;11.35;;;7.82;;
24617;SDS011;12762;51.730;5.356;2022-08-16T13:33:06;10.40;;;7.40;;
24617;SDS011;12762;51.730;5.356;2022-08-16T13:35:37;8.48;;;6.35;;
24617;SDS011;12762;51.730;5.356;2022-08-16T13:38:08;9.27;;;7.00;;
24617;SDS011;12762;51.730;5.356;2022-08-16T13:40:50;11.13;;;6.93;;
24617;SDS011;12762;51.730;5.356;2022-08-16T13:43:21;10.82;;;6.90;;
24617;SDS011;12762;51.730;5.356;2022-08-16T13:45:51;10.25;;;6.75;;
24617;SDS011;12762;51.730;5.356;2022-08-16T13:48:21;8.75;;;6.20;;
24617;SDS011;12762;51.730;5.356;2022-08-16T13:51:09;9.82;;;5.35;;
24617;SDS011;12762;51.730;5.356;2022-08-16T13:53:43;6.78;;;5.30;;
24617;SDS011;12762;51.730;5.356;2022-08-16T13:56:18;8.02;;;5.10;;
24617;SDS011;12762;51.730;5.356;2022-08-16T13:58:53;7.90;;;4.47;;
24617;SDS011;12762;51.730;5.356;2022-08-16T14:01:21;8.63;;;4.28;;
24617;SDS011;12762;51.730;5.356;2022-08-16T14:03:48;6.72;;;3.70;;
24617;SDS011;12762;51.730;5.356;2022-08-16T14:06:20;5.03;;;4.00;;
24617;SDS011;12762;51.730;5.356;2022-08-16T14:08:47;5.60;;;3.72;;
24617;SDS011;12762;51.730;5.356;2022-08-16T14:11:24;4.20;;;3.42;;
24617;SDS011;12762;51.730;5.356;2022-08-16T14:13:54;5.13;;;3.65;;
24617;SDS011;12762;51.730;5.356;2022-08-16T14:16:22;5.00;;;3.75;;
24617;SDS011;12762;51.730;5.356;2022-08-16T14:18:59;4.85;;;4.05;;
24617;SDS011;12762;51.730;5.356;2022-08-16T14:21:27;5.60;;;4.20;;
24617;SDS011;12762;51.730;5.356;2022-08-16T14:24:02;5.80;;;3.90;;
24617;SDS011;12762;51.730;5.356;2022-08-16T14:26:50;6.00;;;5.15;;
24617;SDS011;12762;51.730;5.356;2022-08-16T14:29:18;6.82;;;4.68;;
24617;SDS011;12762;51.730;5.356;2022-08-16T14:31:45;7.68;;;4.72;;
24617;SDS011;12762;51.730;5.356;2022-08-16T14:34:18;5.38;;;3.75;;
24617;SDS011;12762;51.730;5.356;2022-08-16T14:36:46;6.30;;;3.38;;
24617;SDS011;12762;51.730;5.356;2022-08-16T14:39:17;4.70;;;2.88;;
24617;SDS011;12762;51.730;5.356;2022-08-16T14:41:44;4.70;;;2.70;;
24617;SDS011;12762;51.730;5.356;2022-08-16T14:44:13;5.72;;;3.05;;
24617;SDS011;12762;51.730;5.356;2022-08-16T14:46:40;3.20;;;2.85;;
24617;SDS011;12762;51.730;5.356;2022-08-16T14:49:10;5.38;;;2.90;;
24617;SDS011;12762;51.730;5.356;2022-08-16T14:51:37;4.32;;;3.25;;
24617;SDS011;12762;51.730;5.356;2022-08-16T14:54:03;3.40;;;2.45;;
24617;SDS011;12762;51.730;5.356;2022-08-16T14:56:36;5.15;;;2.65;;
24617;SDS011;12762;51.730;5.356;2022-08-16T14:59:12;3.55;;;2.60;;
24617;SDS011;12762;51.730;5.356;2022-08-16T15:01:39;2.58;;;2.38;;
24617;SDS011;12762;51.730;5.356;2022-08-16T15:04:25;3.25;;;2.53;;
24617;SDS011;12762;51.730;5.356;2022-08-16T15:07:05;4.30;;;2.80;;
24617;SDS011;12762;51.730;5.356;2022-08-16T15:09:36;5.70;;;2.97;;
24617;SDS011;12762;51.730;5.356;2022-08-16T15:12:24;3.85;;;2.50;;
24617;SDS011;12762;51.730;5.356;2022-08-16T15:14:59;5.30;;;2.88;;
24617;SDS011;12762;51.730;5.356;2022-08-16T15:17:38;3.92;;;2.65;;
24617;SDS011;12762;51.730;5.356;2022-08-16T15:20:06;3.85;;;2.78;;